Time;durP1;ratioP1;P1;durP2;ratioP2;P2;SDS_P1;SDS_P2;PMS_P1;PMS_P2;Temp;Humidity;BMP_temperature;BMP_pressure;BME280_temperature;BME280_humidity;BME280_pressure;Samples;Min_cycle;Max_cycle;Signal;HPM_P1;HPM_P2
2022/03/14 00:00:20;;;;;;;0.35;0.35;;;10.10;48.50;;;;;;5037316;28;20013;-73
2022/03/14 00:02:47;;;;;;;0.50;0.50;;;10.10;48.50;;;;;;5069974;28;20037;-73
2022/03/14 00:05:15;;;;;;;1.50;1.48;;;10.20;48.40;;;;;;5068460;28;20025;-73
2022/03/14 00:07:42;;;;;;;0.38;0.38;;;10.20;48.60;;;;;;5029839;28;20037;-72
2022/03/14 00:10:09;;;;;;;0.10;0.10;;;10.20;49.00;;;;;;5029612;28;20045;-72
2022/03/14 00:12:34;;;;;;;0.28;0.28;;;10.30;49.30;;;;;;5047967;28;20072;-72
2022/03/14 00:15:03;;;;;;;0.10;0.10;;;10.20;49.40;;;;;;5033193;28;20570;-71
2022/03/14 00:17:29;;;;;;;0.10;0.10;;;10.10;50.20;;;;;;5029845;28;20045;-72
2022/03/14 00:19:57;;;;;;;0.95;0.95;;;10.10;50.30;;;;;;5046801;28;20498;-71
2022/03/14 00:22:23;;;;;;;1.58;1.48;;;10.10;50.20;;;;;;5049536;28;20132;-72
2022/03/14 00:24:49;;;;;;;0.63;0.63;;;10.00;50.10;;;;;;5044216;28;20033;-72
2022/03/14 00:27:15;;;;;;;0.10;0.10;;;10.00;50.30;;;;;;5029812;28;20025;-73
2022/03/14 00:29:41;;;;;;;0.10;0.10;;;10.00;50.50;;;;;;5032509;28;20125;-72
2022/03/14 00:32:07;;;;;;;0.10;0.10;;;10.10;50.40;;;;;;5033652;28;20053;-72
2022/03/14 00:34:32;;;;;;;0.20;0.20;;;10.10;50.60;;;;;;5033803;28;20067;-71
2022/03/14 00:36:58;;;;;;;0.10;0.10;;;10.20;50.30;;;;;;5033549;28;20616;-71
2022/03/14 00:39:24;;;;;;;0.63;0.63;;;10.20;50.00;;;;;;5033800;28;20148;-71
2022/03/14 00:41:50;;;;;;;0.40;0.40;;;10.20;50.00;;;;;;5032014;28;20112;-72
2022/03/14 00:44:17;;;;;;;0.20;0.20;;;10.20;50.10;;;;;;5033191;28;20127;-71
2022/03/14 00:46:43;;;;;;;0.10;0.10;;;10.30;49.70;;;;;;5032941;28;20044;-71
2022/03/14 00:49:09;;;;;;;2.60;2.40;;;10.30;49.60;;;;;;5048607;28;20407;-72
2022/03/14 00:51:35;;;;;;;0.30;0.30;;;10.40;49.20;;;;;;5046875;28;20033;-71
2022/03/14 00:54:02;;;;;;;0.20;0.20;;;10.40;48.90;;;;;;5032974;28;20017;-71
2022/03/14 00:56:28;;;;;;;1.75;1.65;;;10.50;48.40;;;;;;5048730;28;20032;-71
2022/03/14 00:58:54;;;;;;;0.88;0.88;;;10.50;47.90;;;;;;5052656;28;20391;-71
2022/03/14 01:01:21;;;;;;;0.45;0.45;;;10.50;48.00;;;;;;5047254;28;20337;-72
2022/03/14 01:03:46;;;;;;;1.00;1.00;;;10.50;48.10;;;;;;5032717;28;20482;-72
2022/03/14 01:06:12;;;;;;;0.10;0.10;;;10.60;48.00;;;;;;5032301;28;20053;-71
2022/03/14 01:08:38;;;;;;;9.50;2.55;;;10.60;48.40;;;;;;5032314;28;20487;-71
2022/03/14 01:11:04;;;;;;;0.55;0.55;;;10.60;48.10;;;;;;5039913;28;20029;-72
2022/03/14 01:13:29;;;;;;;0.10;0.10;;;10.50;48.40;;;;;;5052574;28;20043;-70
2022/03/14 01:15:55;;;;;;;0.28;0.28;;;10.50;48.20;;;;;;5045180;28;20029;-71
2022/03/14 01:18:21;;;;;;;1.52;1.45;;;10.50;48.80;;;;;;5046896;28;20100;-71
2022/03/14 01:20:47;;;;;;;0.10;0.10;;;10.50;49.80;;;;;;5050892;28;20029;-71
2022/03/14 01:23:13;;;;;;;0.20;0.20;;;10.60;50.90;;;;;;5052422;28;20029;-71
2022/03/14 01:25:38;;;;;;;0.10;0.10;;;10.40;51.00;;;;;;5046473;28;20035;-72
2022/03/14 01:28:04;;;;;;;0.73;0.73;;;10.50;53.80;;;;;;5032211;28;20084;-72
2022/03/14 01:30:30;;;;;;;0.22;0.22;;;10.60;54.10;;;;;;5031996;28;20053;-72
2022/03/14 01:32:58;;;;;;;0.20;0.20;;;10.60;57.60;;;;;;5032191;28;20064;-72
2022/03/14 01:35:24;;;;;;;1.10;1.10;;;10.70;62.30;;;;;;5031589;28;20147;-71
2022/03/14 01:37:50;;;;;;;0.10;0.10;;;10.80;69.30;;;;;;5049770;28;20554;-72
2022/03/14 01:40:19;;;;;;;0.20;0.20;;;10.80;80.70;;;;;;5051269;28;20021;-73
2022/03/14 01:42:45;;;;;;;0.10;0.10;;;10.80;94.10;;;;;;5051776;28;20021;-72
2022/03/14 01:45:13;;;;;;;0.20;0.20;;;10.80;99.90;;;;;;5043537;28;20033;-72
2022/03/14 01:47:41;;;;;;;4.80;3.15;;;10.90;99.90;;;;;;5031551;28;20553;-72
2022/03/14 01:50:08;;;;;;;0.10;0.10;;;10.80;99.90;;;;;;5031412;28;20029;-71
2022/03/14 01:52:34;;;;;;;0.10;0.10;;;10.80;99.90;;;;;;5031591;28;20022;-72
2022/03/14 01:55:01;;;;;;;0.10;0.10;;;10.90;99.90;;;;;;5035576;28;20100;-72
2022/03/14 01:57:28;;;;;;;0.20;0.20;;;10.70;99.90;;;;;;5051479;28;20454;-72
2022/03/14 01:59:54;;;;;;;0.22;0.22;;;10.80;99.90;;;;;;5051481;28;20040;-72
2022/03/14 02:02:20;;;;;;;0.10;0.10;;;10.80;99.90;;;;;;5068370;22;20525;-68
2022/03/14 02:04:47;;;;;;;0.13;0.13;;;10.80;99.90;;;;;;5059486;28;20029;-69
2022/03/14 02:07:13;;;;;;;0.35;0.35;;;10.70;99.90;;;;;;5052673;28;20029;-67
2022/03/14 02:09:38;;;;;;;0.63;0.63;;;10.70;99.90;;;;;;5041516;28;20137;-68
2022/03/14 02:12:06;;;;;;;0.10;0.10;;;10.70;99.90;;;;;;5046680;28;20055;-68
2022/03/14 02:14:31;;;;;;;0.10;0.10;;;10.70;99.90;;;;;;5043012;28;20534;-69
2022/03/14 02:16:57;;;;;;;0.10;0.10;;;10.60;99.90;;;;;;5051016;28;20126;-68
2022/03/14 02:19:23;;;;;;;0.43;0.43;;;10.60;99.90;;;;;;5040041;28;20083;-67
2022/03/14 02:21:48;;;;;;;0.28;0.28;;;10.60;99.90;;;;;;5031554;28;20025;-69
2022/03/14 02:24:14;;;;;;;0.10;0.10;;;10.60;99.90;;;;;;5038865;28;20477;-67
2022/03/14 02:26:42;;;;;;;0.10;0.10;;;10.60;99.90;;;;;;5050508;28;20036;-69
2022/03/14 02:29:08;;;;;;;0.10;0.10;;;10.60;99.90;;;;;;5051320;28;20053;-69
2022/03/14 02:31:38;;;;;;;1.55;1.55;;;10.50;99.90;;;;;;5055471;28;20024;-70
2022/03/14 02:34:05;;;;;;;0.10;0.10;;;10.50;99.90;;;;;;5058248;28;20558;-68
2022/03/14 02:36:31;;;;;;;0.20;0.20;;;10.50;99.90;;;;;;5050391;28;20033;-67
2022/03/14 02:38:57;;;;;;;0.98;0.98;;;10.50;99.90;;;;;;5050958;28;20017;-69
2022/03/14 02:41:24;;;;;;;0.60;0.60;;;10.50;99.90;;;;;;5050978;28;20025;-68
2022/03/14 02:43:49;;;;;;;0.10;0.10;;;10.50;99.90;;;;;;5050398;28;20039;-68
2022/03/14 02:46:15;;;;;;;0.45;0.45;;;10.60;99.90;;;;;;5050653;28;20107;-68
2022/03/14 02:48:41;;;;;;;0.10;0.10;;;10.50;99.90;;;;;;5050655;28;20033;-68
2022/03/14 02:51:07;;;;;;;0.30;0.30;;;10.50;99.90;;;;;;5050855;28;20054;-68
2022/03/14 02:53:33;;;;;;;0.65;0.65;;;10.60;99.90;;;;;;5049415;28;20037;-67
2022/03/14 02:55:59;;;;;;;0.10;0.10;;;10.60;99.90;;;;;;5050321;28;20387;-67
2022/03/14 02:58:28;;;;;;;0.10;0.10;;;10.50;99.90;;;;;;5050743;28;20029;-70
2022/03/14 03:00:54;;;;;;;1.35;1.35;;;10.50;99.90;;;;;;5050155;28;20048;-70
2022/03/14 03:03:19;;;;;;;0.15;0.15;;;10.50;99.90;;;;;;5050372;28;20096;-69
2022/03/14 03:05:45;;;;;;;0.10;0.10;;;10.40;99.90;;;;;;5050287;28;20479;-68
2022/03/14 03:08:11;;;;;;;0.40;0.40;;;10.40;99.90;;;;;;5050264;28;20025;-68
2022/03/14 03:10:37;;;;;;;0.10;0.10;;;10.40;99.90;;;;;;5043984;28;20109;-69
2022/03/14 03:13:03;;;;;;;0.10;0.10;;;10.30;99.90;;;;;;5050550;28;20082;-68
2022/03/14 03:15:30;;;;;;;0.25;0.25;;;10.30;99.90;;;;;;5039843;28;20033;-68
2022/03/14 03:17:56;;;;;;;0.10;0.10;;;10.30;99.90;;;;;;5038754;28;20029;-68
2022/03/14 03:20:22;;;;;;;0.10;0.10;;;10.30;99.90;;;;;;5030188;28;20044;-68
2022/03/14 03:22:49;;;;;;;0.10;0.10;;;10.30;99.90;;;;;;5030599;28;20025;-69
2022/03/14 03:25:15;;;;;;;0.63;0.63;;;10.30;99.90;;;;;;5030190;28;20017;-69
2022/03/14 03:27:41;;;;;;;0.10;0.10;;;10.20;99.90;;;;;;5030976;28;20036;-69
2022/03/14 03:30:07;;;;;;;0.10;0.10;;;10.20;99.90;;;;;;5030565;28;20136;-68
2022/03/14 03:32:34;;;;;;;0.10;0.10;;;10.10;99.90;;;;;;5030296;28;20036;-68
2022/03/14 03:35:00;;;;;;;0.10;0.10;;;10.10;99.90;;;;;;5029695;28;20044;-68
2022/03/14 03:37:25;;;;;;;0.10;0.10;;;10.10;99.90;;;;;;5030651;28;20527;-68
2022/03/14 03:39:51;;;;;;;0.40;0.40;;;10.10;99.90;;;;;;5030087;28;20109;-68
2022/03/14 03:42:17;;;;;;;0.10;0.10;;;10.10;99.90;;;;;;5033592;28;20496;-68
2022/03/14 03:44:43;;;;;;;0.10;0.10;;;10.10;99.90;;;;;;5060468;28;20809;-68
2022/03/14 03:47:09;;;;;;;0.10;0.10;;;10.10;99.90;;;;;;5050295;28;20055;-70
2022/03/14 03:49:34;;;;;;;0.10;0.10;;;10.00;99.90;;;;;;5049967;28;20033;-69
2022/03/14 03:52:00;;;;;;;0.10;0.10;;;10.20;99.90;;;;;;5049796;28;20036;-68
2022/03/14 03:54:26;;;;;;;0.45;0.45;;;10.20;99.90;;;;;;5049395;28;20021;-69
2022/03/14 03:56:51;;;;;;;0.10;0.10;;;10.20;99.90;;;;;;5049811;28;20013;-68
2022/03/14 03:59:17;;;;;;;0.52;0.52;;;10.30;99.90;;;;;;5049978;28;20479;-68
2022/03/14 04:01:46;;;;;;;0.13;0.13;;;10.30;99.90;;;;;;5049549;28;20029;-70
2022/03/14 04:04:12;;;;;;;0.63;0.63;;;10.30;99.90;;;;;;5049724;28;20036;-69
2022/03/14 04:06:41;;;;;;;0.10;0.10;;;10.30;99.90;;;;;;5051901;28;20033;-69
2022/03/14 04:09:07;;;;;;;0.10;0.10;;;10.30;99.90;;;;;;5053852;28;20025;-69
2022/03/14 04:11:35;;;;;;;0.10;0.10;;;10.30;99.90;;;;;;5053011;28;20086;-68
2022/03/14 04:14:02;;;;;;;0.90;0.90;;;10.30;99.90;;;;;;5053779;28;20028;-68
2022/03/14 04:16:29;;;;;;;0.10;0.10;;;10.20;99.90;;;;;;5053609;28;20027;-68
2022/03/14 04:18:55;;;;;;;0.10;0.10;;;10.20;99.90;;;;;;5053449;28;20550;-69
2022/03/14 04:21:21;;;;;;;0.10;0.10;;;10.20;99.90;;;;;;5051866;28;20656;-68
2022/03/14 04:23:48;;;;;;;0.10;0.10;;;10.20;99.90;;;;;;5053801;28;20033;-68
2022/03/14 04:26:13;;;;;;;0.20;0.20;;;10.10;99.90;;;;;;5053553;28;20021;-69
2022/03/14 04:28:41;;;;;;;0.75;0.75;;;10.10;99.90;;;;;;5053326;28;20029;-68
2022/03/14 04:31:07;;;;;;;0.10;0.10;;;10.10;99.90;;;;;;5053680;28;20059;-67
2022/03/14 04:33:34;;;;;;;0.10;0.10;;;10.10;99.90;;;;;;5053291;28;20070;-68
2022/03/14 04:35:59;;;;;;;0.30;0.30;;;10.10;99.90;;;;;;5052954;28;20033;-67
2022/03/14 04:38:26;;;;;;;0.10;0.10;;;10.10;99.90;;;;;;5052495;28;20101;-69
2022/03/14 04:40:52;;;;;;;0.10;0.10;;;10.00;99.90;;;;;;5053313;28;20044;-68
2022/03/14 04:43:18;;;;;;;0.10;0.10;;;10.00;99.90;;;;;;5053293;28;20495;-69
2022/03/14 04:45:44;;;;;;;0.10;0.10;;;9.90;99.90;;;;;;5052334;28;20536;-69
2022/03/14 04:48:10;;;;;;;0.20;0.20;;;9.90;99.90;;;;;;5053251;28;20037;-69
2022/03/14 04:50:36;;;;;;;0.10;0.10;;;9.90;99.90;;;;;;5054376;28;20382;-68
2022/03/14 04:53:02;;;;;;;0.10;0.10;;;9.90;99.90;;;;;;5064133;28;20033;-68
2022/03/14 04:55:28;;;;;;;0.10;0.10;;;10.00;99.90;;;;;;5051971;28;20036;-68
2022/03/14 04:57:54;;;;;;;0.10;0.10;;;10.00;99.90;;;;;;5052848;28;20079;-69
2022/03/14 05:00:20;;;;;;;0.10;0.10;;;10.00;99.90;;;;;;5050488;28;20416;-68
2022/03/14 05:02:46;;;;;;;0.10;0.10;;;9.90;99.90;;;;;;5052545;28;20517;-68
2022/03/14 05:05:11;;;;;;;0.10;0.10;;;9.90;99.90;;;;;;5040583;28;20104;-68
2022/03/14 05:07:38;;;;;;;0.10;0.10;;;9.90;99.90;;;;;;5048213;28;20069;-68
2022/03/14 05:10:06;;;;;;;0.10;0.10;;;9.90;99.90;;;;;;5032422;28;20044;-68
2022/03/14 05:12:32;;;;;;;0.10;0.10;;;9.80;99.90;;;;;;5033282;28;20525;-67
2022/03/14 05:14:58;;;;;;;0.10;0.10;;;9.80;99.90;;;;;;5048183;28;20618;-68
2022/03/14 05:17:25;;;;;;;0.10;0.10;;;9.70;99.90;;;;;;5052546;28;20112;-69
2022/03/14 05:19:50;;;;;;;3.60;3.25;;;9.70;99.90;;;;;;5052383;28;20506;-68
2022/03/14 05:22:17;;;;;;;0.10;0.10;;;9.60;99.90;;;;;;5051974;28;20017;-69
2022/03/14 05:24:43;;;;;;;0.10;0.10;;;9.60;99.90;;;;;;5052236;28;20028;-69
2022/03/14 05:27:09;;;;;;;0.00;0.00;;;9.50;99.90;;;;;;5051091;28;20020;-69
2022/03/14 05:29:34;;;;;;;0.10;0.10;;;9.50;99.90;;;;;;5052327;28;20021;-68
2022/03/14 05:32:00;;;;;;;3.00;2.63;;;9.40;99.90;;;;;;5038994;28;20025;-68
2022/03/14 05:34:26;;;;;;;0.10;0.10;;;9.30;99.90;;;;;;5031087;28;20036;-68
2022/03/14 05:36:52;;;;;;;3.85;3.53;;;9.30;99.90;;;;;;5032414;28;20109;-68
2022/03/14 05:39:18;;;;;;;0.10;0.10;;;9.20;99.90;;;;;;5033446;28;20159;-69
2022/03/14 05:41:43;;;;;;;0.10;0.10;;;9.20;99.90;;;;;;5051848;28;20021;-69
2022/03/14 05:44:09;;;;;;;0.10;0.10;;;9.20;99.90;;;;;;5050959;28;20033;-68
2022/03/14 05:46:35;;;;;;;0.10;0.10;;;9.10;99.90;;;;;;5050534;28;20389;-70
2022/03/14 05:49:01;;;;;;;0.10;0.10;;;9.10;99.90;;;;;;5051935;28;20104;-68
2022/03/14 05:51:26;;;;;;;0.10;0.10;;;9.10;99.90;;;;;;5052129;28;20467;-67
2022/03/14 05:53:52;;;;;;;0.10;0.10;;;9.10;99.90;;;;;;5052163;28;20028;-67
2022/03/14 05:56:18;;;;;;;0.10;0.10;;;9.10;99.90;;;;;;5051044;28;20062;-68
2022/03/14 05:58:44;;;;;;;0.10;0.10;;;9.00;99.90;;;;;;5043775;28;20049;-68
2022/03/14 06:01:10;;;;;;;0.10;0.10;;;9.00;99.90;;;;;;5041101;28;20018;-68
2022/03/14 06:03:36;;;;;;;0.50;0.50;;;9.00;99.90;;;;;;5054054;28;20117;-68
2022/03/14 06:06:02;;;;;;;0.32;0.32;;;9.00;99.90;;;;;;5071774;28;20029;-68
2022/03/14 06:08:28;;;;;;;0.10;0.10;;;9.00;99.90;;;;;;5071902;28;20032;-69
2022/03/14 06:10:55;;;;;;;0.10;0.10;;;9.00;99.90;;;;;;5064597;28;20023;-69
2022/03/14 06:13:22;;;;;;;0.10;0.10;;;9.00;99.90;;;;;;5050927;28;20028;-69
2022/03/14 06:15:48;;;;;;;0.10;0.10;;;9.00;99.90;;;;;;5051092;28;20028;-69
2022/03/14 06:18:14;;;;;;;0.10;0.10;;;9.10;99.90;;;;;;5051519;28;20017;-68
2022/03/14 06:20:39;;;;;;;0.60;0.60;;;9.00;99.90;;;;;;5051045;28;20029;-69
2022/03/14 06:23:05;;;;;;;0.10;0.10;;;8.90;99.90;;;;;;5051630;28;20101;-68
2022/03/14 06:25:31;;;;;;;0.10;0.10;;;8.90;99.90;;;;;;5051238;28;20478;-69
2022/03/14 06:27:57;;;;;;;0.10;0.10;;;8.80;99.90;;;;;;5050992;28;20029;-68
2022/03/14 06:30:23;;;;;;;0.10;0.10;;;8.80;99.90;;;;;;5037160;28;20040;-73
2022/03/14 06:32:49;;;;;;;0.10;0.10;;;8.80;99.90;;;;;;5031449;28;20056;-71
2022/03/14 06:35:17;;;;;;;0.13;0.13;;;8.70;99.90;;;;;;5031224;28;20487;-69
2022/03/14 06:37:44;;;;;;;0.10;0.10;;;8.80;99.90;;;;;;5042640;28;20028;-70
2022/03/14 06:40:10;;;;;;;0.10;0.10;;;8.80;99.90;;;;;;5049990;28;20024;-69
2022/03/14 06:42:41;;;;;;;0.10;0.10;;;8.80;99.90;;;;;;5050974;28;20035;-70
2022/03/14 06:45:11;;;;;;;0.10;0.10;;;8.80;99.90;;;;;;5050835;28;20032;-68
2022/03/14 06:47:38;;;;;;;0.10;0.10;;;8.80;99.90;;;;;;5032982;28;20571;-69
2022/03/14 06:50:05;;;;;;;0.10;0.10;;;8.70;99.90;;;;;;5043161;28;20375;-69
2022/03/14 06:52:31;;;;;;;0.10;0.10;;;8.70;99.90;;;;;;5050508;28;20044;-68
2022/03/14 06:54:57;;;;;;;0.10;0.10;;;8.60;99.90;;;;;;5045316;28;20033;-69
2022/03/14 06:57:22;;;;;;;0.10;0.10;;;8.60;99.90;;;;;;5033105;28;20047;-70
2022/03/14 06:59:48;;;;;;;0.10;0.10;;;8.50;99.90;;;;;;5050158;28;20033;-69
2022/03/14 07:02:14;;;;;;;0.10;0.10;;;8.60;99.90;;;;;;5048405;28;20040;-69
2022/03/14 07:04:39;;;;;;;0.10;0.10;;;8.60;99.90;;;;;;5049767;28;20027;-69
2022/03/14 07:07:07;;;;;;;0.10;0.10;;;8.60;99.90;;;;;;5050765;28;20104;-69
2022/03/14 07:09:35;;;;;;;0.10;0.10;;;8.60;99.90;;;;;;5049558;28;20090;-68
2022/03/14 07:12:00;;;;;;;0.10;0.10;;;8.70;99.90;;;;;;5049416;28;20120;-69
2022/03/14 07:14:26;;;;;;;0.10;0.10;;;8.60;99.90;;;;;;5056535;28;20121;-69
2022/03/14 07:16:52;;;;;;;0.10;0.10;;;8.70;99.90;;;;;;5050277;28;20029;-71
2022/03/14 07:19:18;;;;;;;0.10;0.10;;;8.70;99.90;;;;;;5050048;28;20079;-70
2022/03/14 07:21:44;;;;;;;0.10;0.10;;;8.80;99.90;;;;;;5049946;28;20025;-71
2022/03/14 07:24:10;;;;;;;0.10;0.10;;;8.80;99.90;;;;;;5050471;28;20513;-71
2022/03/14 07:26:42;;;;;;;0.10;0.10;;;8.90;99.90;;;;;;5050072;28;20111;-69
2022/03/14 07:29:07;;;;;;;0.10;0.10;;;8.80;99.90;;;;;;5033365;28;20029;-69
2022/03/14 07:31:35;;;;;;;0.10;0.10;;;8.90;99.90;;;;;;5050105;28;20025;-70
2022/03/14 07:34:04;;;;;;;0.10;0.10;;;9.00;99.90;;;;;;5050204;28;20020;-71
2022/03/14 07:36:34;;;;;;;0.10;0.10;;;9.00;99.90;;;;;;5050069;28;20108;-71
2022/03/14 07:39:00;;;;;;;1.35;0.60;;;9.10;99.90;;;;;;5049931;28;20032;-73
2022/03/14 07:41:26;;;;;;;0.10;0.10;;;9.20;99.90;;;;;;5050484;28;20170;-70
2022/03/14 07:43:52;;;;;;;0.10;0.10;;;9.30;99.90;;;;;;5050423;28;20093;-73
2022/03/14 07:46:18;;;;;;;0.30;0.30;;;9.30;99.90;;;;;;5049279;28;20500;-72
2022/03/14 07:48:43;;;;;;;0.10;0.10;;;9.30;99.90;;;;;;5049880;28;20391;-71
2022/03/14 07:51:09;;;;;;;0.10;0.10;;;9.40;99.90;;;;;;5050132;28;20037;-72
2022/03/14 07:53:35;;;;;;;0.10;0.10;;;9.30;99.90;;;;;;5049621;28;20031;-69
2022/03/14 07:56:00;;;;;;;0.10;0.10;;;9.30;99.90;;;;;;5049533;28;20025;-70
2022/03/14 07:58:27;;;;;;;0.10;0.10;;;9.40;99.90;;;;;;5048833;28;20471;-70
2022/03/14 08:00:53;;;;;;;0.10;0.10;;;9.40;99.90;;;;;;5049858;28;20083;-71
2022/03/14 08:03:23;;;;;;;0.10;0.10;;;9.60;99.90;;;;;;5049173;28;20033;-73
2022/03/14 08:05:58;;;;;;;0.10;0.10;;;9.70;99.90;;;;;;5049895;28;20533;-67
2022/03/14 08:08:24;;;;;;;0.10;0.10;;;9.90;99.90;;;;;;5050200;28;20388;-71
2022/03/14 08:10:50;;;;;;;0.10;0.10;;;10.00;99.90;;;;;;5059043;22;20057;-73
2022/03/14 08:13:16;;;;;;;0.10;0.10;;;10.00;99.90;;;;;;5047059;28;20024;-72
2022/03/14 08:15:42;;;;;;;0.10;0.10;;;10.10;99.90;;;;;;5049633;28;20048;-72
2022/03/14 08:18:09;;;;;;;1.00;1.00;;;10.10;99.90;;;;;;5046622;28;20014;-72
2022/03/14 08:20:36;;;;;;;0.10;0.10;;;10.10;99.90;;;;;;5049157;28;20151;-73
2022/03/14 08:23:03;;;;;;;0.10;0.10;;;10.20;99.90;;;;;;5050893;28;20028;-72
2022/03/14 08:25:30;;;;;;;0.10;0.10;;;10.30;99.90;;;;;;5054214;28;20107;-71
2022/03/14 08:27:55;;;;;;;0.10;0.10;;;10.20;99.90;;;;;;5046229;28;20032;-73
2022/03/14 08:30:22;;;;;;;0.25;0.25;;;10.10;99.90;;;;;;5049777;28;20037;-71
2022/03/14 08:32:49;;;;;;;0.10;0.10;;;10.00;99.90;;;;;;5049496;28;20029;-73
2022/03/14 08:35:17;;;;;;;0.10;0.10;;;10.00;99.90;;;;;;5042866;28;20048;-73
2022/03/14 08:37:44;;;;;;;0.10;0.10;;;10.00;99.90;;;;;;5046930;28;20017;-72
2022/03/14 08:40:12;;;;;;;0.10;0.10;;;10.10;99.90;;;;;;5047141;28;20021;-72
2022/03/14 08:42:38;;;;;;;0.10;0.10;;;10.10;99.90;;;;;;5048111;28;20471;-72
2022/03/14 08:45:05;;;;;;;0.10;0.10;;;10.00;99.90;;;;;;5048106;28;20104;-72
2022/03/14 08:47:32;;;;;;;0.10;0.10;;;10.10;99.90;;;;;;5047467;28;20092;-72
2022/03/14 08:49:57;;;;;;;0.10;0.10;;;10.30;99.90;;;;;;5049884;28;20112;-72
2022/03/14 08:52:23;;;;;;;0.10;0.10;;;10.50;99.90;;;;;;5052048;28;20131;-73
2022/03/14 08:54:49;;;;;;;0.10;0.10;;;10.70;99.90;;;;;;5048298;28;20072;-73
2022/03/14 08:57:16;;;;;;;0.10;0.10;;;10.60;99.90;;;;;;5051167;28;20079;-73
2022/03/14 08:59:43;;;;;;;0.10;0.10;;;10.50;99.90;;;;;;5051494;28;20474;-72
2022/03/14 09:02:09;;;;;;;0.10;0.10;;;10.50;99.90;;;;;;5044146;28;20022;-73
2022/03/14 09:04:36;;;;;;;0.10;0.10;;;10.40;99.90;;;;;;5051326;28;20025;-73
2022/03/14 09:07:02;;;;;;;0.10;0.10;;;10.50;99.90;;;;;;5040204;28;20021;-72
2022/03/14 09:09:28;;;;;;;0.10;0.10;;;10.50;99.90;;;;;;5044315;28;20028;-72
2022/03/14 09:11:54;;;;;;;0.10;0.10;;;10.50;99.90;;;;;;5047695;28;20033;-71
2022/03/14 09:14:20;;;;;;;0.10;0.10;;;10.60;99.90;;;;;;5049551;28;20090;-72
2022/03/14 09:16:48;;;;;;;0.10;0.10;;;10.60;99.90;;;;;;5049761;28;20033;-72
2022/03/14 09:19:14;;;;;;;0.10;0.10;;;10.60;99.90;;;;;;5048612;28;20024;-73
2022/03/14 09:21:40;;;;;;;0.10;0.10;;;10.60;99.90;;;;;;5052162;28;20494;-72
2022/03/14 09:24:06;;;;;;;0.10;0.10;;;10.80;99.90;;;;;;5049407;28;20032;-73
2022/03/14 09:26:35;;;;;;;0.10;0.10;;;10.70;99.90;;;;;;5048925;28;20080;-72
2022/03/14 09:29:04;;;;;;;0.10;0.10;;;10.80;99.90;;;;;;5047769;28;20076;-72
2022/03/14 09:31:31;;;;;;;0.10;0.10;;;10.90;99.90;;;;;;5049313;28;20020;-72
2022/03/14 09:33:58;;;;;;;0.10;0.10;;;10.90;99.90;;;;;;5050745;28;20179;-71
2022/03/14 09:36:24;;;;;;;0.10;0.10;;;10.80;99.90;;;;;;5049523;28;20108;-71
2022/03/14 09:38:49;;;;;;;0.10;0.10;;;10.70;99.90;;;;;;5046552;28;20171;-72
2022/03/14 09:41:19;;;;;;;0.10;0.10;;;10.80;99.90;;;;;;5048393;28;20101;-73
2022/03/14 09:43:51;;;;;;;0.10;0.10;;;11.00;99.90;;;;;;5049765;28;20037;-73
2022/03/14 09:46:20;;;;;;;0.10;0.10;;;11.10;99.90;;;;;;5049950;28;20025;-72
2022/03/14 09:48:57;;;;;;;0.10;0.10;;;11.20;99.90;;;;;;5048964;28;20028;-73
2022/03/14 09:51:24;;;;;;;0.10;0.10;;;11.30;99.90;;;;;;5049568;28;20033;-72
2022/03/14 09:53:52;;;;;;;0.10;0.10;;;11.40;99.90;;;;;;5049638;28;20029;-72
2022/03/14 09:56:18;;;;;;;0.10;0.10;;;11.40;99.90;;;;;;5047176;28;20033;-71
2022/03/14 09:58:47;;;;;;;0.10;0.10;;;11.40;99.90;;;;;;5048532;28;20028;-73
2022/03/14 10:01:13;;;;;;;0.10;0.10;;;11.40;99.90;;;;;;5048541;28;20047;-74
2022/03/14 10:03:42;;;;;;;0.10;0.10;;;11.40;99.90;;;;;;5045772;28;20043;-72
2022/03/14 10:06:08;;;;;;;0.10;0.10;;;11.40;99.90;;;;;;5046950;28;20021;-72
2022/03/14 10:08:35;;;;;;;0.10;0.10;;;11.60;99.90;;;;;;5048874;28;20152;-74
2022/03/14 10:11:01;;;;;;;0.10;0.10;;;11.70;99.90;;;;;;5049497;28;20029;-73
2022/03/14 10:13:28;;;;;;;0.10;0.10;;;11.90;99.90;;;;;;5048504;28;20040;-73
2022/03/14 10:15:54;;;;;;;0.10;0.10;;;12.10;99.90;;;;;;5046227;28;20028;-72
2022/03/14 10:18:21;;;;;;;0.10;0.10;;;12.00;99.90;;;;;;5049755;28;20067;-72
2022/03/14 10:20:56;;;;;;;0.10;0.10;;;12.10;99.90;;;;;;5047110;28;20071;-73
2022/03/14 10:23:43;;;;;;;0.10;0.10;;;12.30;99.90;;;;;;5047891;28;20052;-72
2022/03/14 10:26:17;;;;;;;0.10;0.10;;;12.50;99.90;;;;;;5047311;28;20025;-72
2022/03/14 10:28:49;;;;;;;0.10;0.10;;;12.60;99.40;;;;;;5047806;28;20036;-73
2022/03/14 10:31:26;;;;;;;0.20;0.20;;;12.40;99.00;;;;;;5048998;28;20036;-71
2022/03/14 10:34:00;;;;;;;0.10;0.10;;;12.20;97.90;;;;;;5047772;28;20116;-72
2022/03/14 10:36:46;;;;;;;0.10;0.10;;;12.10;98.50;;;;;;5047910;28;20052;-71
2022/03/14 10:39:30;;;;;;;0.10;0.10;;;12.30;97.70;;;;;;5048439;28;20021;-74
2022/03/14 10:42:10;;;;;;;0.10;0.10;;;12.20;97.50;;;;;;5027962;28;20021;-70
2022/03/14 10:44:39;;;;;;;0.10;0.10;;;12.30;97.30;;;;;;5045466;28;20025;-70
2022/03/14 10:47:08;;;;;;;0.10;0.10;;;12.50;96.80;;;;;;5048898;28;20025;-72
2022/03/14 10:49:36;;;;;;;0.10;0.10;;;12.70;96.60;;;;;;5047743;28;20029;-72
2022/03/14 10:52:08;;;;;;;0.10;0.10;;;12.80;94.90;;;;;;5046864;28;20029;-72
2022/03/14 10:54:43;;;;;;;0.10;0.10;;;13.00;92.90;;;;;;5044320;28;20561;-72
2022/03/14 10:57:25;;;;;;;0.10;0.10;;;13.00;92.40;;;;;;5048550;28;20040;-73
2022/03/14 10:59:54;;;;;;;0.10;0.10;;;13.20;92.30;;;;;;5048471;28;20021;-73
2022/03/14 11:02:21;;;;;;;0.10;0.10;;;13.20;91.90;;;;;;5048062;28;20036;-73
2022/03/14 11:04:53;;;;;;;0.10;0.10;;;13.20;90.80;;;;;;5046914;28;20025;-72
2022/03/14 11:07:23;;;;;;;0.10;0.10;;;13.20;90.00;;;;;;5046487;28;20029;-72
2022/03/14 11:09:51;;;;;;;0.10;0.10;;;13.20;88.80;;;;;;5048854;28;20032;-71
2022/03/14 11:12:19;;;;;;;0.10;0.10;;;13.40;86.10;;;;;;5045371;28;20033;-73
2022/03/14 11:14:56;;;;;;;0.10;0.10;;;13.50;85.60;;;;;;5047914;28;20383;-71
2022/03/14 11:17:33;;;;;;;0.10;0.10;;;13.70;84.60;;;;;;5048372;28;20410;-72
2022/03/14 11:19:59;;;;;;;0.10;0.10;;;14.00;84.90;;;;;;5046322;28;20083;-73
2022/03/14 11:22:27;;;;;;;0.10;0.10;;;14.00;81.30;;;;;;5045703;28;20021;-72
2022/03/14 11:24:58;;;;;;;0.10;0.10;;;13.80;80.50;;;;;;5047790;28;20047;-71
2022/03/14 11:27:25;;;;;;;0.10;0.10;;;13.80;81.40;;;;;;5045094;28;20075;-70
2022/03/14 11:30:02;;;;;;;0.10;0.10;;;14.00;80.60;;;;;;5047608;28;20090;-73
2022/03/14 11:32:28;;;;;;;0.10;0.10;;;14.00;79.40;;;;;;5044003;28;20033;-72
2022/03/14 11:34:55;;;;;;;0.10;0.10;;;13.90;80.10;;;;;;5046628;28;20051;-73
2022/03/14 11:37:21;;;;;;;0.10;0.10;;;13.80;78.20;;;;;;5044084;28;20057;-72
2022/03/14 11:39:48;;;;;;;0.10;0.10;;;13.70;79.00;;;;;;5048678;28;20082;-71
2022/03/14 11:42:15;;;;;;;0.52;0.50;;;13.80;78.60;;;;;;5048757;28;20387;-72
2022/03/14 11:44:45;;;;;;;0.10;0.10;;;13.90;77.70;;;;;;5043727;28;20021;-72
2022/03/14 11:47:12;;;;;;;0.10;0.10;;;14.00;75.90;;;;;;5043931;28;20650;-72
2022/03/14 11:49:38;;;;;;;0.10;0.10;;;14.00;76.70;;;;;;5048804;28;20394;-72
2022/03/14 11:52:10;;;;;;;0.10;0.10;;;14.00;75.90;;;;;;5043950;28;20036;-72
2022/03/14 11:54:38;;;;;;;0.10;0.10;;;14.00;76.20;;;;;;5048922;28;20095;-71
2022/03/14 11:57:05;;;;;;;0.10;0.10;;;14.00;76.80;;;;;;5048690;28;20040;-71
2022/03/14 11:59:32;;;;;;;0.10;0.10;;;14.10;76.20;;;;;;5048332;28;20112;-72
2022/03/14 12:02:00;;;;;;;0.10;0.10;;;14.30;77.60;;;;;;5046421;28;20044;-71
2022/03/14 12:04:40;;;;;;;0.10;0.10;;;14.40;76.80;;;;;;5046244;28;20029;-72
2022/03/14 12:07:07;;;;;;;0.10;0.10;;;14.70;75.40;;;;;;5045265;28;20509;-70
2022/03/14 12:09:33;;;;;;;0.10;0.10;;;14.80;73.50;;;;;;5044111;28;20068;-71
2022/03/14 12:14:58;;;;;;;0.10;0.10;;;14.90;73.00;;;;;;6037473;22;20331;-74
2022/03/14 12:17:26;;;;;;;0.10;0.10;;;14.90;72.00;;;;;;5033739;28;21370;-72
2022/03/14 12:19:56;;;;;;;0.10;0.10;;;14.70;70.70;;;;;;5044730;28;20030;-72
2022/03/14 12:22:32;;;;;;;0.10;0.10;;;14.80;71.60;;;;;;5045870;28;20090;-74
2022/03/14 12:25:00;;;;;;;0.10;0.10;;;14.70;70.70;;;;;;5050028;28;20044;-77
2022/03/14 12:30:05;;;;;;;0.10;0.10;;;14.90;71.00;;;;;;5024934;28;20160;-71
2022/03/14 12:32:40;;;;;;;0.10;0.10;;;14.90;69.50;;;;;;5030356;28;20024;-70
2022/03/14 12:35:16;;;;;;;0.10;0.10;;;14.70;69.90;;;;;;5029725;28;20033;-71
2022/03/14 12:37:49;;;;;;;0.10;0.10;;;14.60;69.80;;;;;;5026974;28;20028;-72
2022/03/14 12:40:21;;;;;;;0.10;0.10;;;14.60;68.90;;;;;;5009367;28;20026;-69
2022/03/14 12:42:51;;;;;;;0.10;0.10;;;14.80;69.10;;;;;;5008180;28;20047;-71
2022/03/14 12:45:30;;;;;;;0.10;0.10;;;14.80;68.20;;;;;;5009188;28;20037;-72
2022/03/14 12:48:05;;;;;;;0.10;0.10;;;14.90;68.50;;;;;;5013261;28;20043;-70
2022/03/14 12:50:43;;;;;;;0.10;0.10;;;15.00;68.70;;;;;;5012139;28;20038;-73
2022/03/14 12:53:16;;;;;;;0.10;0.10;;;14.90;69.10;;;;;;5007136;28;20026;-71
2022/03/14 12:55:47;;;;;;;0.10;0.10;;;14.70;68.70;;;;;;5007157;28;20026;-71